Time;durP1;ratioP1;P1;durP2;ratioP2;P2;SDS_P1;SDS_P2;PMS_P1;PMS_P2;Temp;Humidity;BMP_temperature;BMP_pressure;BME280_temperature;BME280_humidity;BME280_pressure;Samples;Min_cycle;Max_cycle;Signal;HPM_P1;HPM_P2
2021/03/28 00:00:13;;;;;;;48.22;23.75;;;;;;;3.45;70.04;99530.91;5058086;28;20037;-83
2021/03/28 00:02:50;;;;;;;50.67;23.42;;;;;;;3.45;70.39;99537.19;5059312;28;20053;-87
2021/03/28 00:05:23;;;;;;;47.42;23.52;;;;;;;3.47;70.45;99526.91;5066133;28;20035;-87
2021/03/28 00:07:53;;;;;;;52.33;23.88;;;;;;;3.53;70.39;99523.31;5067262;28;20024;-85
2021/03/28 00:10:33;;;;;;;55.45;24.42;;;;;;;3.60;71.08;99527.84;5079637;28;20024;-85
2021/03/28 00:13:07;;;;;;;56.47;25.77;;;;;;;3.64;70.70;99515.50;5067397;28;20032;-85
2021/03/28 00:15:38;;;;;;;54.47;25.85;;;;;;;3.74;70.68;99521.25;5068828;28;20030;-86
2021/03/28 00:18:56;;;;;;;53.80;25.17;;;;;;;3.78;70.93;99517.03;5067419;28;20035;-87
2021/03/28 00:21:25;;;;;;;52.75;24.42;;;;;;;3.83;70.76;99516.34;5043610;28;20094;-85
2021/03/28 00:23:58;;;;;;;53.92;24.80;;;;;;;3.91;70.41;99509.75;5056557;28;20020;-85
2021/03/28 00:26:36;;;;;;;56.65;25.92;;;;;;;3.90;70.66;99519.81;5066014;28;20105;-85
2021/03/28 00:29:24;;;;;;;60.83;27.88;;;;;;;3.90;70.78;99516.25;5067429;28;20130;-87
2021/03/28 00:32:03;;;;;;;67.00;30.58;;;;;;;3.96;70.91;99515.34;5067910;28;20074;-84
2021/03/28 00:34:51;;;;;;;64.55;29.33;;;;;;;4.07;70.11;99519.22;5066061;28;20153;-84
2021/03/28 00:37:25;;;;;;;68.72;30.38;;;;;;;4.09;70.17;99512.50;5064002;28;20054;-87
2021/03/28 00:39:56;;;;;;;67.03;29.55;;;;;;;4.15;70.02;99511.56;5063706;28;20052;-85
2021/03/28 00:42:27;;;;;;;67.22;29.88;;;;;;;4.25;69.88;99510.22;5058201;28;20908;-85
2021/03/28 00:45:13;;;;;;;70.90;31.15;;;;;;;4.24;70.68;99522.13;5056858;28;20060;-84
2021/03/28 00:47:41;;;;;;;69.10;30.90;;;;;;;4.24;70.15;99533.81;5062159;28;20108;-85
2021/03/28 00:50:21;;;;;;;66.68;29.65;;;;;;;4.23;69.76;99531.34;5064448;28;20477;-84
2021/03/28 00:52:54;;;;;;;66.55;29.77;;;;;;;4.18;70.01;99532.00;5068021;28;20141;-84
2021/03/28 00:55:26;;;;;;;55.70;25.10;;;;;;;4.14;70.09;99530.78;5067561;28;20024;-84
2021/03/28 00:58:07;;;;;;;46.85;22.00;;;;;;;4.12;69.99;99538.34;5067366;28;20092;-85
2021/03/28 01:00:52;;;;;;;46.47;22.20;;;;;;;4.13;70.42;99537.28;5066539;28;20044;-85
2021/03/28 01:03:57;;;;;;;46.47;19.92;;;;;;;4.16;69.65;99534.97;5057158;28;20041;-84
2021/03/28 01:06:43;;;;;;;40.70;18.55;;;;;;;4.23;69.57;99543.00;5057035;28;20593;-84
2021/03/28 01:09:18;;;;;;;28.45;14.30;;;;;;;4.31;69.93;99545.44;5068316;28;20492;-84
2021/03/28 01:12:22;;;;;;;30.77;14.07;;;;;;;4.32;69.14;99560.66;5064278;28;20020;-85
2021/03/28 01:14:55;;;;;;;30.50;13.77;;;;;;;4.37;69.80;99562.69;5039656;28;20115;-86
2021/03/28 01:17:27;;;;;;;30.10;13.80;;;;;;;4.41;69.82;99573.94;5065725;28;20682;-84
2021/03/28 01:20:24;;;;;;;21.17;10.23;;;;;;;4.38;68.83;99572.50;5068263;28;20093;-85
2021/03/28 01:23:08;;;;;;;21.67;9.75;;;;;;;4.26;68.56;99575.16;5060554;28;20040;-84
2021/03/28 01:26:12;;;;;;;17.98;8.15;;;;;;;4.25;68.31;99583.53;5057019;28;20725;-84
2021/03/28 01:29:11;;;;;;;19.60;9.35;;;;;;;4.21;68.53;99580.44;5033222;28;20051;-85
2021/03/28 01:31:56;;;;;;;15.10;6.60;;;;;;;4.17;68.69;99588.22;5069179;28;20490;-84
2021/03/28 01:34:49;;;;;;;16.60;7.68;;;;;;;4.06;67.82;99586.25;5065880;28;20021;-84
2021/03/28 01:37:24;;;;;;;16.08;7.75;;;;;;;4.06;68.07;99591.66;5063871;28;20481;-85
2021/03/28 01:39:59;;;;;;;13.95;6.60;;;;;;;4.01;67.69;99591.50;5066190;28;20040;-83
2021/03/28 01:42:51;;;;;;;9.95;4.15;;;;;;;3.96;68.09;99596.78;5066046;28;20025;-83
2021/03/28 01:45:30;;;;;;;11.52;6.25;;;;;;;3.85;67.29;99603.78;5057866;28;20043;-83
2021/03/28 01:48:25;;;;;;;11.82;6.55;;;;;;;3.78;67.46;99608.44;5056080;28;20036;-84
2021/03/28 01:51:20;;;;;;;9.02;4.60;;;;;;;3.74;68.07;99608.06;5063947;28;20506;-86
2021/03/28 01:54:00;;;;;;;11.32;4.90;;;;;;;3.66;67.57;99620.03;5065553;28;20051;-85
2021/03/28 01:56:44;;;;;;;11.30;5.90;;;;;;;3.60;68.29;99620.06;5067599;28;20902;-85
2021/03/28 01:59:24;;;;;;;9.30;4.65;;;;;;;3.58;67.61;99614.88;5064569;28;20047;-85
2021/03/28 02:02:09;;;;;;;;;;;;;;;3.61;67.56;99616.31;5065710;28;20476;-83
2021/03/28 02:04:49;;;;;;;10.82;4.65;;;;;;;3.62;68.34;99616.09;5061821;28;19923;-85
2021/03/28 02:07:46;;;;;;;8.18;3.95;;;;;;;3.61;68.49;99610.88;5058477;28;20031;-85
2021/03/28 02:10:48;;;;;;;9.75;5.40;;;;;;;3.64;67.45;99599.59;5032714;28;20044;-85
2021/03/28 02:13:35;;;;;;;8.15;3.78;;;;;;;3.61;67.91;99595.47;5065717;28;20032;-85
2021/03/28 02:16:15;;;;;;;6.90;3.70;;;;;;;3.64;67.74;99594.16;5064460;28;20028;-85
2021/03/28 02:19:14;;;;;;;8.18;4.57;;;;;;;3.69;68.22;99599.75;5064962;28;20040;-87
2021/03/28 02:21:57;;;;;;;7.85;4.15;;;;;;;3.78;68.21;99598.44;5054024;28;20051;-85
2021/03/28 02:24:47;;;;;;;7.47;3.95;;;;;;;3.85;67.98;99601.91;5066297;28;20043;-85
2021/03/28 02:27:37;;;;;;;9.20;4.90;;;;;;;3.88;67.75;99612.28;5056365;28;20021;-86
2021/03/28 02:30:25;;;;;;;9.48;5.80;;;;;;;3.81;67.38;99608.00;5056626;28;20590;-83
2021/03/28 02:33:06;;;;;;;8.05;5.05;;;;;;;3.77;67.98;99602.19;5080133;28;20024;-83
2021/03/28 02:35:57;;;;;;;7.88;4.85;;;;;;;3.65;67.47;99606.69;5065270;28;20109;-84
2021/03/28 02:38:50;;;;;;;9.15;5.07;;;;;;;3.55;67.42;99608.00;5065363;28;20060;-84
2021/03/28 02:41:21;;;;;;;11.52;5.25;;;;;;;3.52;68.13;99615.78;5066476;28;20097;-84
2021/03/28 02:44:09;;;;;;;12.77;5.57;;;;;;;3.48;67.83;99609.94;5065373;28;20024;-84
2021/03/28 02:47:09;;;;;;;9.65;4.78;;;;;;;3.45;68.30;99613.13;5062199;28;20598;-83
2021/03/28 02:49:50;;;;;;;5.97;3.28;;;;;;;3.42;67.40;99617.09;5055651;28;20482;-85
2021/03/28 02:52:27;;;;;;;6.90;3.28;;;;;;;3.49;67.54;99611.59;5058029;28;20024;-84
2021/03/28 02:55:18;;;;;;;5.35;2.92;;;;;;;3.53;68.19;99618.25;5076839;28;20028;-83
2021/03/28 02:57:54;;;;;;;6.20;3.10;;;;;;;3.55;67.51;99623.47;5063361;28;20036;-84
2021/03/28 03:00:44;;;;;;;6.10;2.80;;;;;;;3.62;67.58;99628.81;5065551;28;20469;-85
2021/03/28 03:03:28;;;;;;;3.97;2.72;;;;;;;3.71;67.39;99620.19;5064070;28;20530;-85
2021/03/28 03:05:56;;;;;;;5.13;2.83;;;;;;;3.75;67.85;99625.16;5065626;28;20047;-85
2021/03/28 03:08:33;;;;;;;5.20;3.35;;;;;;;3.80;67.24;99625.34;5059833;28;20028;-83
2021/03/28 03:11:16;;;;;;;7.38;3.50;;;;;;;3.81;66.82;99622.41;5060468;28;20074;-84
2021/03/28 03:14:06;;;;;;;6.90;3.97;;;;;;;3.82;66.68;99628.66;5064263;28;20028;-85
2021/03/28 03:16:55;;;;;;;7.90;3.60;;;;;;;3.77;67.04;99634.75;5067345;28;20036;-84
2021/03/28 03:20:11;;;;;;;6.30;2.50;;;;;;;3.69;66.86;99627.72;5067703;28;20039;-84
2021/03/28 03:23:01;;;;;;;5.07;3.38;;;;;;;3.67;67.01;99634.41;5041379;28;20052;-84
2021/03/28 03:25:44;;;;;;;5.30;2.90;;;;;;;3.61;66.27;99641.56;5069847;28;20036;-84
2021/03/28 03:28:45;;;;;;;5.80;3.08;;;;;;;3.57;67.16;99637.66;5065088;28;20040;-84
2021/03/28 03:31:35;;;;;;;6.03;2.70;;;;;;;3.58;67.25;99637.41;5059501;28;20044;-84
2021/03/28 03:34:25;;;;;;;;;;;;;;;3.62;66.54;99642.38;5058889;28;20032;-84
2021/03/28 03:36:59;;;;;;;4.43;2.97;;;;;;;3.71;66.48;99643.78;5069243;28;19924;-83
2021/03/28 03:39:59;;;;;;;5.60;2.90;;;;;;;3.74;67.06;99646.06;5068109;28;20086;-84
2021/03/28 03:43:01;;;;;;;4.87;2.80;;;;;;;3.75;66.80;99657.72;5069118;28;20037;-85
2021/03/28 03:45:56;;;;;;;7.15;2.95;;;;;;;3.69;66.90;99654.03;5067627;28;20036;-86
2021/03/28 03:48:34;;;;;;;5.47;3.08;;;;;;;3.72;66.97;99650.88;5068515;28;20587;-86
2021/03/28 03:51:44;;;;;;;7.13;3.20;;;;;;;3.63;66.20;99653.03;5060837;28;20043;-85
2021/03/28 03:54:48;;;;;;;4.63;3.20;;;;;;;3.53;66.77;99652.69;5058947;28;20032;-86
2021/03/28 03:57:41;;;;;;;5.32;2.95;;;;;;;3.46;66.80;99654.63;5035370;28;20859;-85
2021/03/28 04:00:12;;;;;;;5.00;2.78;;;;;;;3.39;66.53;99655.50;5067354;28;20028;-84
2021/03/28 04:02:56;;;;;;;4.90;3.10;;;;;;;3.40;66.74;99657.16;5067037;28;20064;-85
2021/03/28 04:05:42;;;;;;;5.13;3.20;;;;;;;3.43;66.87;99662.16;5068074;28;20104;-84
2021/03/28 04:08:35;;;;;;;5.28;2.85;;;;;;;3.48;67.01;99675.03;5068341;28;20516;-85
2021/03/28 04:11:13;;;;;;;5.70;3.40;;;;;;;3.49;66.60;99668.56;5063637;28;20197;-85
2021/03/28 04:13:57;;;;;;;5.80;4.13;;;;;;;3.47;66.35;99670.66;5059866;28;20024;-85
2021/03/28 04:16:47;;;;;;;4.75;3.22;;;;;;;3.48;65.92;99677.75;5059714;28;20017;-85
2021/03/28 04:19:24;;;;;;;5.07;3.28;;;;;;;3.39;66.12;99684.50;5068195;28;20046;-85
2021/03/28 04:22:26;;;;;;;7.15;3.70;;;;;;;3.29;66.37;99684.97;5067268;28;20028;-85
2021/03/28 04:25:22;;;;;;;8.65;6.07;;;;;;;3.21;65.73;99702.34;5067182;28;20028;-86
2021/03/28 04:28:18;;;;;;;50.63;20.25;;;;;;;3.13;66.39;99702.56;5079913;28;20052;-85
2021/03/28 04:31:18;;;;;;;37.03;13.85;;;;;;;3.01;66.01;99694.31;5069009;28;20035;-85
2021/03/28 04:33:48;;;;;;;;;;;;;;;2.94;66.64;99699.75;5059488;28;20043;-85
2021/03/28 04:37:01;;;;;;;147.38;51.22;;;;;;;2.84;66.65;99707.50;5057957;28;19920;-84
2021/03/28 04:39:39;;;;;;;14.27;6.45;;;;;;;2.81;66.46;99714.22;5036343;28;20037;-84
2021/03/28 04:42:32;;;;;;;25.35;10.18;;;;;;;2.78;66.65;99714.63;5040570;28;20041;-84
2021/03/28 04:45:35;;;;;;;18.50;7.30;;;;;;;2.76;66.91;99722.13;5062596;28;20055;-85
2021/03/28 04:48:25;;;;;;;11.48;5.97;;;;;;;2.70;67.73;99714.00;5067486;28;20799;-84
2021/03/28 04:51:16;;;;;;;13.45;6.25;;;;;;;2.70;67.08;99727.56;5067207;28;20024;-85
2021/03/28 04:54:06;;;;;;;10.80;5.88;;;;;;;2.67;67.63;99729.66;5074213;28;20027;-85
2021/03/28 04:56:34;;;;;;;12.88;6.13;;;;;;;2.68;67.53;99735.91;5056771;28;20035;-84
2021/03/28 04:59:27;;;;;;;17.33;7.43;;;;;;;2.67;67.68;99735.06;5060379;28;20020;-85
2021/03/28 05:02:17;;;;;;;15.07;6.57;;;;;;;2.72;67.96;99737.16;5070604;28;20013;-85
2021/03/28 05:05:14;;;;;;;13.95;6.60;;;;;;;2.67;67.64;99737.78;5066585;28;20055;-85
2021/03/28 05:08:01;;;;;;;15.20;6.60;;;;;;;2.65;67.49;99742.56;5066065;28;20458;-85
2021/03/28 05:10:38;;;;;;;14.00;6.93;;;;;;;2.63;67.60;99744.69;5067659;28;20079;-85
2021/03/28 05:13:06;;;;;;;11.70;6.47;;;;;;;2.62;67.84;99758.44;5088912;28;20073;-86
2021/03/28 05:15:51;;;;;;;14.88;7.97;;;;;;;2.58;67.73;99757.19;5090860;28;20031;-86
2021/03/28 05:18:53;;;;;;;20.55;9.65;;;;;;;2.55;67.01;99755.75;5091731;28;20107;-86
2021/03/28 05:21:40;;;;;;;35.03;14.15;;;;;;;2.56;67.99;99765.53;5089476;28;20020;-86
2021/03/28 05:24:24;;;;;;;17.52;9.25;;;;;;;2.57;67.48;99767.19;5090179;28;20035;-85
2021/03/28 05:27:10;;;;;;;20.67;11.68;;;;;;;2.63;67.83;99774.47;5090901;28;20028;-86
2021/03/28 05:29:54;;;;;;;24.45;13.93;;;;;;;2.71;67.71;99777.97;5091128;28;20525;-86
2021/03/28 05:32:53;;;;;;;22.25;12.60;;;;;;;2.78;68.31;99784.22;5087534;28;20443;-85
2021/03/28 05:36:07;;;;;;;18.73;10.15;;;;;;;2.86;68.60;99792.13;5091001;28;20555;-84
2021/03/28 05:38:50;;;;;;;23.08;10.48;;;;;;;2.98;68.41;99787.72;5091047;28;20487;-85
2021/03/28 05:41:49;;;;;;;32.45;15.80;;;;;;;3.08;68.33;99789.97;5091601;28;20024;-84
2021/03/28 05:44:56;;;;;;;34.85;16.98;;;;;;;3.21;68.63;99799.13;5091494;28;20521;-85
2021/03/28 05:47:34;;;;;;;27.80;13.73;;;;;;;3.33;68.69;99799.28;5091412;28;20127;-85
2021/03/28 05:50:18;;;;;;;33.42;14.60;;;;;;;3.43;68.60;99803.19;5091109;28;20070;-85
2021/03/28 05:53:21;;;;;;;25.83;11.98;;;;;;;3.50;67.65;99797.72;5089527;28;20504;-84
2021/03/28 05:56:17;;;;;;;22.33;10.60;;;;;;;3.60;67.57;99805.41;5089933;28;20383;-84
2021/03/28 05:59:03;;;;;;;23.60;12.15;;;;;;;3.69;67.54;99811.41;5087363;28;20028;-84
2021/03/28 06:02:13;;;;;;;23.02;12.75;;;;;;;3.79;67.63;99811.75;5089452;28;20062;-84
2021/03/28 06:05:03;;;;;;;18.10;10.48;;;;;;;3.88;67.69;99817.75;5091572;28;20028;-84
2021/03/28 06:07:47;;;;;;;13.70;7.93;;;;;;;3.97;67.15;99813.72;5089933;28;20059;-86
2021/03/28 06:10:46;;;;;;;14.15;9.23;;;;;;;4.02;66.44;99815.78;5090075;28;20016;-85
2021/03/28 06:13:41;;;;;;;15.75;10.32;;;;;;;4.06;67.23;99818.91;5090457;28;20110;-85
2021/03/28 06:16:20;;;;;;;9.20;5.93;;;;;;;4.07;66.54;99821.38;5090044;28;20020;-82
2021/03/28 06:18:48;;;;;;;8.52;5.40;;;;;;;4.09;66.48;99821.16;5089181;28;20016;-83
2021/03/28 06:21:23;;;;;;;7.90;4.63;;;;;;;4.11;66.67;99821.75;5094490;28;20093;-83
2021/03/28 06:23:51;;;;;;;5.43;4.07;;;;;;;4.15;65.37;99831.13;5106764;28;20012;-82
2021/03/28 06:26:25;;;;;;;8.23;6.03;;;;;;;4.09;65.19;99822.00;5113673;28;20024;-83
2021/03/28 06:29:27;;;;;;;13.30;6.53;;;;;;;4.12;65.12;99824.28;5113324;28;20104;-82
2021/03/28 06:32:11;;;;;;;12.75;5.63;;;;;;;4.16;64.87;99819.22;5113927;28;20023;-84
2021/03/28 06:34:58;;;;;;;8.23;4.70;;;;;;;4.23;65.23;99832.78;5113745;28;20102;-83
2021/03/28 06:37:26;;;;;;;11.25;5.57;;;;;;;4.30;65.33;99828.94;5114801;28;20020;-83
2021/03/28 06:40:27;;;;;;;15.00;6.63;;;;;;;4.31;64.29;99838.75;5112951;28;20020;-82
2021/03/28 06:43:10;;;;;;;12.45;5.95;;;;;;;4.24;64.10;99848.00;5115725;28;20095;-84
2021/03/28 06:45:50;;;;;;;7.10;3.47;;;;;;;4.24;63.87;99853.44;5118933;28;20039;-83
2021/03/28 06:48:42;;;;;;;8.38;4.40;;;;;;;4.17;63.63;99848.03;5119292;28;20031;-83
2021/03/28 06:51:27;;;;;;;24.33;7.30;;;;;;;4.19;63.58;99855.97;5118154;28;20008;-82
2021/03/28 06:54:30;;;;;;;18.02;6.88;;;;;;;4.15;63.96;99861.00;5106982;28;20169;-82
2021/03/28 06:57:32;;;;;;;20.67;5.93;;;;;;;4.13;63.30;99863.94;5093903;28;20085;-83
2021/03/28 06:59:57;;;;;;;7.00;3.67;;;;;;;4.11;62.62;99860.63;5094258;28;20028;-84
2021/03/28 07:02:50;;;;;;;6.75;4.05;;;;;;;4.10;63.06;99861.69;5093910;28;20040;-82
2021/03/28 07:05:41;;;;;;;5.25;3.45;;;;;;;4.15;62.68;99859.13;5094147;28;20032;-83
2021/03/28 07:08:14;;;;;;;18.88;6.63;;;;;;;4.19;62.85;99859.53;5092467;28;20035;-83
2021/03/28 07:10:57;;;;;;;5.82;3.20;;;;;;;4.26;62.67;99873.88;5094372;28;20468;-83
2021/03/28 07:13:37;;;;;;;11.68;3.88;;;;;;;4.29;61.87;99851.72;5091257;28;20549;-82
2021/03/28 07:16:24;;;;;;;9.75;4.30;;;;;;;4.35;61.97;99868.19;5091552;28;20510;-83
2021/03/28 07:19:34;;;;;;;9.45;4.38;;;;;;;4.40;62.44;99863.75;5093308;28;20063;-82
2021/03/28 07:22:20;;;;;;;9.05;3.85;;;;;;;4.46;62.48;99875.63;5044136;28;20104;-82
2021/03/28 07:25:20;;;;;;;13.35;4.80;;;;;;;4.51;61.63;99881.22;5039850;28;20033;-81
2021/03/28 07:28:04;;;;;;;6.13;3.53;;;;;;;4.55;61.82;99878.91;5035748;28;20035;-83
2021/03/28 07:30:53;;;;;;;11.48;4.93;;;;;;;4.63;61.76;99875.91;5093677;28;20077;-82
2021/03/28 07:33:44;;;;;;;5.97;3.80;;;;;;;4.70;61.42;99886.72;5094062;28;20028;-83
2021/03/28 07:36:22;;;;;;;8.60;4.28;;;;;;;4.76;60.51;99885.84;5093357;28;20460;-83
2021/03/28 07:38:50;;;;;;;6.38;3.35;;;;;;;4.79;60.73;99879.97;5093953;28;20043;-83
2021/03/28 07:41:40;;;;;;;5.47;3.55;;;;;;;4.85;60.75;99872.78;5094574;28;20024;-84
2021/03/28 07:44:27;;;;;;;9.50;4.47;;;;;;;4.86;59.87;99885.31;5092632;28;20028;-85
2021/03/28 07:47:20;;;;;;;9.23;4.45;;;;;;;4.90;60.36;99879.19;5093692;28;20028;-83
2021/03/28 07:50:24;;;;;;;6.55;3.47;;;;;;;4.98;60.13;99883.53;5089277;28;20028;-83
2021/03/28 07:53:27;;;;;;;5.18;3.38;;;;;;;5.12;58.67;99886.09;5009742;28;20041;-83
2021/03/28 07:56:15;;;;;;;10.68;3.58;;;;;;;5.09;58.47;99898.28;5093057;28;20422;-83
2021/03/28 07:58:47;;;;;;;9.75;3.92;;;;;;;5.11;58.05;99882.56;5093372;28;20051;-83
2021/03/28 08:01:33;;;;;;;4.47;2.85;;;;;;;5.18;58.21;99890.66;5092739;28;20028;-81
2021/03/28 08:04:36;;;;;;;7.90;3.50;;;;;;;5.28;57.72;99901.84;5092705;28;20044;-84
2021/03/28 08:07:19;;;;;;;9.13;3.50;;;;;;;5.34;56.80;99892.78;5090801;28;20380;-83
2021/03/28 08:10:16;;;;;;;4.53;2.30;;;;;;;5.39;56.81;99894.81;5091035;28;20028;-82
2021/03/28 08:13:06;;;;;;;5.65;2.50;;;;;;;5.54;57.03;99908.03;5092714;28;20588;-83
2021/03/28 08:15:34;;;;;;;;;;;;;;;5.72;57.09;99906.38;5093065;28;20028;-80
2021/03/28 08:18:12;;;;;;;7.45;2.83;;;;;;;5.84;56.35;99915.44;5093262;28;20367;-82
2021/03/28 08:20:52;;;;;;;5.28;2.80;;;;;;;5.95;55.83;99913.84;5093439;28;20031;-82
2021/03/28 08:23:43;;;;;;;5.68;2.72;;;;;;;6.00;55.42;99910.41;5092867;28;20133;-81
2021/03/28 08:26:38;;;;;;;15.02;6.05;;;;;;;6.13;55.69;99926.63;5091528;28;20061;-81
2021/03/28 08:29:22;;;;;;;4.07;2.40;;;;;;;6.20;55.67;99913.75;5093091;28;20106;-82
2021/03/28 08:32:21;;;;;;;5.47;2.45;;;;;;;6.27;55.83;99915.53;5091212;28;20090;-82
2021/03/28 08:35:08;;;;;;;4.68;2.45;;;;;;;6.25;54.72;99918.47;5091042;28;20030;-82
2021/03/28 08:37:43;;;;;;;8.10;2.92;;;;;;;6.16;54.28;99908.97;5091887;28;20032;-81
2021/03/28 08:40:41;;;;;;;6.40;2.85;;;;;;;6.09;54.11;99915.38;5090677;28;20051;-82
2021/03/28 08:43:39;;;;;;;6.50;2.72;;;;;;;6.11;54.76;99906.94;5091847;28;20048;-82
2021/03/28 08:46:46;;;;;;;8.85;3.88;;;;;;;6.24;54.61;99911.38;5090131;28;20028;-82
2021/03/28 08:49:33;;;;;;;4.57;2.63;;;;;;;6.31;54.48;99906.66;5094193;28;20024;-80
2021/03/28 08:52:31;;;;;;;5.30;2.65;;;;;;;6.33;54.25;99904.53;5093117;28;20063;-80
2021/03/28 08:55:03;;;;;;;7.28;2.50;;;;;;;6.36;53.53;99909.53;5091090;28;20031;-80
2021/03/28 08:57:36;;;;;;;6.40;3.10;;;;;;;6.35;52.77;99912.47;5065377;28;20510;-79
2021/03/28 09:00:15;;;;;;;4.03;2.08;;;;;;;6.42;53.00;99905.03;5062483;28;20036;-79
2021/03/28 09:03:00;;;;;;;12.75;3.85;;;;;;;6.58;52.14;99902.69;5066782;28;20044;-80
2021/03/28 09:05:52;;;;;;;9.70;3.03;;;;;;;6.61;52.27;99894.88;5066575;28;20082;-80
2021/03/28 09:08:23;;;;;;;8.38;3.08;;;;;;;6.63;52.67;99900.91;5070071;28;20043;-79
2021/03/28 09:10:49;;;;;;;11.95;4.28;;;;;;;6.62;52.44;99895.72;5067674;28;20568;-79
2021/03/28 09:13:38;;;;;;;5.35;3.08;;;;;;;6.72;52.62;99892.41;5067551;28;20024;-79
2021/03/28 09:16:14;;;;;;;19.63;7.40;;;;;;;6.88;52.30;99902.63;5071119;28;20075;-78
2021/03/28 09:18:48;;;;;;;10.02;4.82;;;;;;;7.07;51.63;99903.34;5059062;28;20039;-79
2021/03/28 09:21:25;;;;;;;5.18;2.33;;;;;;;7.11;51.15;99893.63;5057085;28;20031;-79
2021/03/28 09:24:13;;;;;;;10.23;5.38;;;;;;;7.09;50.81;99890.28;5062972;28;20452;-78
2021/03/28 09:27:00;;;;;;;5.93;3.15;;;;;;;7.15;51.17;99885.78;5066139;28;20496;-78
2021/03/28 09:29:40;;;;;;;11.93;8.43;;;;;;;7.29;50.76;99887.19;5066195;28;20040;-77
2021/03/28 09:32:26;;;;;;;7.18;3.20;;;;;;;7.43;50.25;99873.25;5065742;28;20048;-78
2021/03/28 09:35:06;;;;;;;7.70;3.17;;;;;;;7.50;49.71;99878.63;5064023;28;20020;-77
2021/03/28 09:37:48;;;;;;;5.88;2.60;;;;;;;7.54;49.81;99883.34;5066760;28;20028;-76
2021/03/28 09:40:27;;;;;;;6.28;2.15;;;;;;;7.43;47.65;99874.13;5058839;28;20610;-78
2021/03/28 09:43:14;;;;;;;6.20;2.60;;;;;;;7.46;49.25;99870.06;5057179;28;20131;-76
2021/03/28 09:45:59;;;;;;;4.95;2.20;;;;;;;7.61;49.04;99877.72;5065785;28;20565;-76
2021/03/28 09:48:52;;;;;;;5.05;2.20;;;;;;;7.77;48.81;99872.59;5064971;28;20017;-77
2021/03/28 09:51:35;;;;;;;12.48;4.20;;;;;;;7.72;46.98;99871.41;5065526;28;20060;-76
2021/03/28 09:54:10;;;;;;;8.25;2.60;;;;;;;7.65;47.42;99867.19;5065859;28;20064;-76
2021/03/28 09:56:53;;;;;;;7.13;2.35;;;;;;;7.65;47.83;99875.38;5064514;28;20032;-77
2021/03/28 09:59:43;;;;;;;5.50;2.00;;;;;;;7.76;48.42;99871.75;5063979;28;20527;-80
2021/03/28 10:02:11;;;;;;;5.55;2.63;;;;;;;7.97;48.50;99872.16;5058993;28;20020;-78
2021/03/28 10:05:09;;;;;;;6.03;2.47;;;;;;;8.15;46.95;99869.19;5057768;28;20481;-79
2021/03/28 10:07:49;;;;;;;7.72;4.00;;;;;;;8.17;46.29;99879.91;5064959;28;20037;-78
2021/03/28 10:10:14;;;;;;;7.97;2.50;;;;;;;8.10;44.91;99880.06;5065232;28;20453;-79
2021/03/28 10:12:47;;;;;;;6.95;3.28;;;;;;;7.97;45.45;99872.97;5064059;28;20035;-78
2021/03/28 10:15:24;;;;;;;5.72;2.33;;;;;;;7.98;46.22;99869.16;5065457;28;20041;-79
2021/03/28 10:18:02;;;;;;;10.07;4.40;;;;;;;8.05;46.85;99866.31;5063164;28;20469;-79
2021/03/28 10:20:30;;;;;;;24.63;6.10;;;;;;;8.12;46.82;99861.53;5060367;28;20038;-79
2021/03/28 10:23:11;;;;;;;6.80;2.65;;;;;;;8.17;46.41;99868.97;5056380;28;20029;-79
2021/03/28 10:25:46;;;;;;;10.48;3.28;;;;;;;8.22;45.33;99858.13;5057057;28;20059;-79
2021/03/28 10:28:30;;;;;;;6.72;2.53;;;;;;;8.35;45.42;99854.25;5066185;28;20024;-79
2021/03/28 10:31:23;;;;;;;32.72;9.18;;;;;;;8.58;46.54;99855.19;5064972;28;20054;-79
2021/03/28 10:33:51;;;;;;;6.15;2.85;;;;;;;8.76;45.04;99851.41;5067330;28;20135;-79
2021/03/28 10:36:27;;;;;;;8.10;3.65;;;;;;;8.90;45.01;99847.22;5065673;28;20024;-78
2021/03/28 10:39:11;;;;;;;11.38;5.05;;;;;;;9.02;44.12;99844.38;5066234;28;20555;-78
2021/03/28 10:42:01;;;;;;;8.75;3.22;;;;;;;8.99;43.54;99846.81;5062894;28;20025;-78
2021/03/28 10:44:59;;;;;;;11.52;4.32;;;;;;;9.11;43.47;99847.53;5054929;28;20032;-78
2021/03/28 10:47:37;;;;;;;16.42;5.20;;;;;;;9.34;45.43;99849.22;5058887;28;20108;-79
2021/03/28 10:50:14;;;;;;;13.65;4.70;;;;;;;9.49;43.31;99851.31;5065695;28;20113;-78
2021/03/28 10:53:07;;;;;;;5.68;2.78;;;;;;;9.57;44.15;99849.22;5077093;28;20090;-77
2021/03/28 10:55:56;;;;;;;9.32;3.00;;;;;;;9.64;44.37;99858.88;5064412;28;20029;-79
2021/03/28 10:58:43;;;;;;;7.60;3.00;;;;;;;9.74;42.08;99860.09;5063294;28;20082;-78
2021/03/28 11:01:21;;;;;;;5.30;1.80;;;;;;;9.75;42.48;99856.28;5063919;28;20090;-79
2021/03/28 11:03:47;;;;;;;5.85;2.58;;;;;;;9.67;41.68;99857.53;5058425;28;20086;-79
2021/03/28 11:06:40;;;;;;;11.40;4.65;;;;;;;9.70;40.79;99853.47;5055800;28;20135;-79
2021/03/28 11:09:08;;;;;;;5.72;3.45;;;;;;;9.81;41.73;99858.81;5060814;28;20052;-78
2021/03/28 11:11:45;;;;;;;5.22;2.22;;;;;;;9.85;40.39;99855.56;5063168;28;20052;-79
2021/03/28 11:14:23;;;;;;;3.95;2.40;;;;;;;9.87;39.96;99856.13;5064542;28;20043;-79
2021/03/28 11:16:48;;;;;;;4.75;2.75;;;;;;;9.88;38.56;99853.13;5075621;28;20050;-79
2021/03/28 11:19:32;;;;;;;6.07;2.50;;;;;;;9.93;38.35;99849.63;5066613;28;20376;-79
2021/03/28 11:22:25;;;;;;;7.53;3.60;;;;;;;10.03;39.07;99860.69;5064266;28;20159;-80
2021/03/28 11:25:06;;;;;;;4.78;2.30;;;;;;;10.10;38.80;99850.34;5056502;28;20028;-80
2021/03/28 11:28:13;;;;;;;6.25;2.70;;;;;;;10.07;38.29;99853.59;5067705;28;20034;-80
2021/03/28 11:30:51;;;;;;;6.90;2.95;;;;;;;10.22;38.74;99852.91;5066009;28;20063;-79
2021/03/28 11:33:25;;;;;;;4.85;2.25;;;;;;;10.18;37.88;99845.47;5067794;28;20032;-79
2021/03/28 11:35:53;;;;;;;5.55;2.70;;;;;;;10.29;39.34;99863.69;5066796;28;20132;-79
2021/03/28 11:38:19;;;;;;;6.47;2.50;;;;;;;10.27;38.43;99852.97;5068076;28;20693;-79
2021/03/28 11:40:50;;;;;;;4.25;2.50;;;;;;;10.19;37.37;99858.09;5070029;28;20044;-80
2021/03/28 11:43:36;;;;;;;6.22;2.95;;;;;;;10.15;37.52;99856.97;5068911;28;20024;-79
2021/03/28 11:46:04;;;;;;;9.15;3.80;;;;;;;10.17;37.99;99852.88;5058309;28;20035;-79
2021/03/28 11:48:35;;;;;;;11.23;4.80;;;;;;;10.25;38.35;99851.59;5057470;28;20032;-78
2021/03/28 11:51:29;;;;;;;7.55;3.75;;;;;;;10.36;38.68;99868.94;5064019;28;20051;-79
2021/03/28 11:54:14;;;;;;;6.43;2.60;;;;;;;10.26;37.35;99858.72;5065491;28;20040;-80
2021/03/28 11:57:03;;;;;;;4.93;2.30;;;;;;;10.06;37.61;99854.69;5066353;28;20032;-80
2021/03/28 11:59:36;;;;;;;11.07;5.07;;;;;;;9.92;37.70;99854.25;5067422;28;20481;-80
2021/03/28 12:02:11;;;;;;;4.47;2.70;;;;;;;9.88;38.47;99857.78;5066996;28;20078;-80
2021/03/28 12:04:49;;;;;;;8.00;4.38;;;;;;;9.90;38.59;99858.38;5068217;28;20019;-80
2021/03/28 12:07:38;;;;;;;8.13;3.45;;;;;;;10.00;38.20;99863.94;5061265;28;20024;-80
2021/03/28 12:10:03;;;;;;;5.18;3.22;;;;;;;10.12;38.53;99850.09;5058307;28;20035;-80
2021/03/28 12:12:47;;;;;;;10.80;3.33;;;;;;;10.23;38.90;99856.50;5064205;28;20020;-80
2021/03/28 12:15:43;;;;;;;7.57;2.63;;;;;;;10.20;38.36;99852.34;5066176;28;20477;-80
2021/03/28 12:18:23;;;;;;;10.10;4.25;;;;;;;10.32;38.81;99856.84;5068373;28;20029;-80
2021/03/28 12:20:58;;;;;;;5.07;3.42;;;;;;;10.38;37.39;99851.16;5066807;28;20058;-80
2021/03/28 12:23:27;;;;;;;5.53;2.53;;;;;;;10.50;36.35;99848.28;5066698;28;20062;-80
2021/03/28 12:26:12;;;;;;;6.40;3.00;;;;;;;10.45;37.08;99847.38;5066283;28;20035;-81
2021/03/28 12:29:03;;;;;;;6.13;2.53;;;;;;;10.32;36.89;99843.13;5057571;28;20024;-81
2021/03/28 12:31:39;;;;;;;3.75;2.60;;;;;;;10.22;36.87;99844.69;5062586;28;20476;-82
2021/03/28 12:34:23;;;;;;;5.88;2.90;;;;;;;10.35;37.81;99834.38;5068889;28;20436;-81
2021/03/28 12:37:14;;;;;;;3.60;2.40;;;;;;;10.48;36.23;99833.16;5066655;28;20072;-81
2021/03/28 12:39:43;;;;;;;4.20;2.38;;;;;;;10.59;35.75;99837.63;5066101;28;20042;-82
2021/03/28 12:42:20;;;;;;;6.47;3.55;;;;;;;10.74;36.29;99833.38;5065701;28;20036;-81
2021/03/28 12:44:50;;;;;;;4.18;2.33;;;;;;;10.72;34.98;99834.47;5067593;28;20050;-81
2021/03/28 12:47:26;;;;;;;6.60;4.32;;;;;;;10.62;35.88;99831.63;5066172;28;20193;-81
2021/03/28 12:50:13;;;;;;;5.10;3.10;;;;;;;10.65;35.46;99819.28;5057389;28;20173;-80
2021/03/28 12:52:52;;;;;;;6.30;3.25;;;;;;;10.73;35.64;99818.81;5057239;28;20587;-80
2021/03/28 12:55:29;;;;;;;8.93;4.83;;;;;;;10.86;35.23;99809.28;5066157;28;20078;-81
2021/03/28 12:58:07;;;;;;;7.20;3.70;;;;;;;10.97;36.58;99818.44;5078349;28;20019;-81